Big Bear Station Historical Data
Daily Summary for April 27, 2019 Units:  English    Metric   Both
Next Day »
Daily Weekly Monthly Yearly Custom
  High: Low: Average:
Temperature: 72.5 °F 41.2 °F 54.7 °F
Dew Point: 48.2 °F 32.5 °F 38.3 °F
Humidity: 90% 29% 57%
Wind Speed: 6.8mph 0.0mph 1.7mph
Wind Gust: -999.0mph - -
Wind- - WNW
Pressure: 23.54 in 23.45 in -
Precipitation: 0.00 in    
Historical Graphs
 
 
Tabular Data for April 27, 2019
Time Temperature Dew Point Pressure Wind Wind Speed Wind Gust Humidity Rainfall Rate (Hourly)
00:10 50.2 °F 34.2 °F 23.54 in Calm   -999.0 mph 54% 0.00 in
00:25 50.0 °F 34.0 °F 23.54 in Calm   -999.0 mph 54% 0.00 in
00:41 49.1 °F 34.1 °F 23.54 in Calm   -999.0 mph 56% 0.00 in
00:56 48.4 °F 33.9 °F 23.53 in Calm   -999.0 mph 57% 0.00 in
01:11 47.3 °F 34.9 °F 23.53 in Calm   -999.0 mph 62% 0.00 in
01:26 46.0 °F 35.3 °F 23.53 in Calm   -999.0 mph 66% 0.00 in
01:42 45.1 °F 34.8 °F 23.53 in South 2.2 mph -999.0 mph 67% 0.00 in
01:57 44.8 °F 34.9 °F 23.52 in Calm   -999.0 mph 68% 0.00 in
02:13 44.4 °F 35.2 °F 23.52 in Calm   -999.0 mph 70% 0.00 in
02:28 44.1 °F 35.7 °F 23.51 in Calm   -999.0 mph 72% 0.00 in
02:43 43.7 °F 36.6 °F 23.51 in Calm   -999.0 mph 76% 0.00 in
02:58 44.2 °F 37.4 °F 23.51 in Calm   -999.0 mph 77% 0.00 in
03:13 45.0 °F 38.9 °F 23.51 in Calm   -999.0 mph 79% 0.00 in
03:29 45.5 °F 39.0 °F 23.50 in Calm   -999.0 mph 78% 0.00 in
03:44 45.0 °F 38.6 °F 23.50 in Calm   -999.0 mph 78% 0.00 in
03:59 43.7 °F 37.9 °F 23.50 in Calm   -999.0 mph 80% 0.00 in
04:14 43.3 °F 38.2 °F 23.50 in Calm   -999.0 mph 82% 0.00 in
04:29 42.8 °F 38.0 °F 23.49 in Calm   -999.0 mph 83% 0.00 in
04:45 42.8 °F 38.0 °F 23.49 in Calm   -999.0 mph 83% 0.00 in
05:00 42.1 °F 37.9 °F 23.49 in Calm   -999.0 mph 85% 0.00 in
05:15 41.5 °F 37.6 °F 23.49 in Calm   -999.0 mph 86% 0.00 in
05:30 41.4 °F 37.8 °F 23.50 in Calm   -999.0 mph 87% 0.00 in
05:45 41.2 °F 37.6 °F 23.50 in Calm   -999.0 mph 87% 0.00 in
06:01 41.7 °F 38.4 °F 23.50 in Calm   -999.0 mph 88% 0.00 in
06:16 41.5 °F 38.5 °F 23.50 in Calm   -999.0 mph 89% 0.00 in
06:31 42.1 °F 38.8 °F 23.50 in Calm   -999.0 mph 88% 0.00 in
06:46 41.5 °F 38.2 °F 23.50 in Calm   -999.0 mph 88% 0.00 in
07:01 42.1 °F 39.4 °F 23.50 in Calm   -999.0 mph 90% 0.00 in
07:17 42.4 °F 39.4 °F 23.51 in Calm   -999.0 mph 89% 0.00 in
07:32 44.2 °F 41.2 °F 23.51 in Calm   -999.0 mph 89% 0.00 in
07:47 44.1 °F 41.4 °F 23.51 in Calm   -999.0 mph 90% 0.00 in
08:02 45.7 °F 42.9 °F 23.51 in Calm   -999.0 mph 90% 0.00 in
08:17 47.5 °F 41.3 °F 23.51 in Calm   -999.0 mph 79% 0.00 in
08:33 51.1 °F 35.9 °F 23.51 in Calm   -999.0 mph 56% 0.00 in
08:48 53.6 °F 34.4 °F 23.51 in Calm   -999.0 mph 48% 0.00 in
09:03 55.4 °F 34.4 °F 23.51 in Calm   -999.0 mph 45% 0.00 in
09:18 57.9 °F 35.5 °F 23.51 in Calm   -999.0 mph 43% 0.00 in
09:33 58.6 °F 35.0 °F 23.51 in Calm   -999.0 mph 41% 0.00 in
09:49 59.7 °F 33.4 °F 23.51 in WNW 3.7 mph -999.0 mph 37% 0.00 in
10:04 60.3 °F 32.5 °F 23.50 in Calm   -999.0 mph 35% 0.00 in
10:19 61.5 °F 33.6 °F 23.50 in NW 2.7 mph -999.0 mph 35% 0.00 in
10:34 63.1 °F 35.7 °F 23.51 in North 1.7 mph -999.0 mph 36% 0.00 in
10:50 64.0 °F 32.8 °F 23.50 in Calm   -999.0 mph 31% 0.00 in
11:05 66.4 °F 33.2 °F 23.50 in Calm   -999.0 mph 29% 0.00 in
11:20 68.0 °F 38.6 °F 23.50 in WNW 4.7 mph -999.0 mph 34% 0.00 in
11:36 68.5 °F 37.5 °F 23.50 in NW 1.7 mph -999.0 mph 32% 0.00 in
11:51 69.4 °F 36.6 °F 23.50 in NNW 3.7 mph -999.0 mph 30% 0.00 in
12:06 68.4 °F 37.4 °F 23.49 in NW 3.7 mph -999.0 mph 32% 0.00 in
12:21 69.6 °F 39.2 °F 23.50 in NNW 4.7 mph -999.0 mph 33% 0.00 in
12:37 68.7 °F 48.2 °F 23.50 in North 5.8 mph -999.0 mph 48% 0.00 in
12:52 70.0 °F 42.5 °F 23.49 in NNE 5.3 mph -999.0 mph 37% 0.00 in
13:08 70.7 °F 43.2 °F 23.48 in NW 4.2 mph -999.0 mph 37% 0.00 in
13:23 71.8 °F 42.7 °F 23.48 in NW 4.7 mph -999.0 mph 35% 0.00 in
13:38 72.3 °F 43.1 °F 23.48 in NW 4.7 mph -999.0 mph 35% 0.00 in
13:54 72.1 °F 45.1 °F 23.48 in WNW 6.3 mph -999.0 mph 38% 0.00 in
14:09 72.5 °F 44.0 °F 23.48 in NW 5.8 mph -999.0 mph 36% 0.00 in
14:25 72.3 °F 43.9 °F 23.48 in NNW 5.8 mph -999.0 mph 36% 0.00 in
14:40 70.9 °F 45.4 °F 23.47 in WNW 5.8 mph -999.0 mph 40% 0.00 in
14:55 67.6 °F 44.3 °F 23.47 in WNW 5.8 mph -999.0 mph 43% 0.00 in
15:10 68.9 °F 44.9 °F 23.47 in NW 4.7 mph -999.0 mph 42% 0.00 in
15:26 66.0 °F 42.9 °F 23.46 in West 3.2 mph -999.0 mph 43% 0.00 in
15:41 66.4 °F 42.6 °F 23.45 in North 5.3 mph -999.0 mph 42% 0.00 in
15:56 65.8 °F 42.7 °F 23.45 in NNW 5.8 mph -999.0 mph 43% 0.00 in
16:12 64.9 °F 43.6 °F 23.45 in WNW 3.7 mph -999.0 mph 46% 0.00 in
16:27 65.7 °F 41.4 °F 23.46 in WNW 4.7 mph -999.0 mph 41% 0.00 in
16:42 66.0 °F 40.3 °F 23.45 in WNW 6.3 mph -999.0 mph 39% 0.00 in
16:58 67.3 °F 43.4 °F 23.45 in ENE 6.3 mph -999.0 mph 42% 0.00 in
17:13 66.4 °F 45.0 °F 23.45 in NW 6.8 mph -999.0 mph 46% 0.00 in
17:28 65.3 °F 43.4 °F 23.46 in NW 5.3 mph -999.0 mph 45% 0.00 in
17:43 64.8 °F 46.2 °F 23.45 in WNW 5.3 mph -999.0 mph 51% 0.00 in
17:59 62.4 °F 43.5 °F 23.45 in NW 6.8 mph -999.0 mph 50% 0.00 in
18:14 63.0 °F 42.5 °F 23.45 in NNW 4.2 mph -999.0 mph 47% 0.00 in
18:29 61.9 °F 40.9 °F 23.45 in NW 3.7 mph -999.0 mph 46% 0.00 in
18:44 59.2 °F 41.1 °F 23.45 in Calm   -999.0 mph 51% 0.00 in
18:59 56.7 °F 40.7 °F 23.45 in West 2.2 mph -999.0 mph 55% 0.00 in
19:15 54.9 °F 40.0 °F 23.45 in Calm   -999.0 mph 57% 0.00 in
19:30 53.6 °F 38.3 °F 23.45 in Calm   -999.0 mph 56% 0.00 in
19:45 52.7 °F 38.3 °F 23.45 in Calm   -999.0 mph 58% 0.00 in
20:00 51.6 °F 37.3 °F 23.45 in Calm   -999.0 mph 58% 0.00 in
20:15 51.1 °F 35.0 °F 23.45 in Calm   -999.0 mph 54% 0.00 in
20:31 50.4 °F 34.8 °F 23.46 in Calm   -999.0 mph 55% 0.00 in
20:46 50.4 °F 34.8 °F 23.46 in Calm   -999.0 mph 55% 0.00 in
21:01 49.6 °F 33.6 °F 23.46 in Calm   -999.0 mph 54% 0.00 in
21:16 48.9 °F 33.4 °F 23.47 in Calm   -999.0 mph 55% 0.00 in
21:31 48.6 °F 33.2 °F 23.47 in Calm   -999.0 mph 55% 0.00 in
21:47 48.2 °F 33.2 °F 23.47 in Calm   -999.0 mph 56% 0.00 in
22:02 48.6 °F 34.1 °F 23.47 in Calm   -999.0 mph 57% 0.00 in
22:17 48.9 °F 33.0 °F 23.47 in Calm   -999.0 mph 54% 0.00 in
22:32 49.1 °F 32.7 °F 23.47 in Calm   -999.0 mph 53% 0.00 in
22:48 48.7 °F 33.3 °F 23.47 in Calm   -999.0 mph 55% 0.00 in
23:03 48.0 °F 33.9 °F 23.47 in Calm   -999.0 mph 58% 0.00 in
23:18 47.1 °F 33.9 °F 23.46 in Calm   -999.0 mph 60% 0.00 in
23:33 46.6 °F 34.7 °F 23.46 in South 2.2 mph -999.0 mph 63% 0.00 in
23:48 46.4 °F 34.9 °F 23.46 in Calm   -999.0 mph 64% 0.00 in
Big Bear CA Weather